Time;durP1;ratioP1;P1;durP2;ratioP2;P2;SDS_P1;SDS_P2;PMS_P1;PMS_P2;Temp;Humidity;BMP_temperature;BMP_pressure;BME280_temperature;BME280_humidity;BME280_pressure;Samples;Min_cycle;Max_cycle;Signal;HPM_P1;HPM_P2
2022/03/12 00:01:52;;;;;;;16.90;9.67;;;3.10;99.90;;;;;;4971455;28;20577;-74
2022/03/12 00:04:18;;;;;;;16.80;11.30;;;3.10;99.90;;;;;;4970868;28;20499;-74
2022/03/12 00:06:44;;;;;;;13.30;9.50;;;3.00;99.90;;;;;;4971222;28;20450;-73
2022/03/12 00:09:10;;;;;;;18.63;10.83;;;3.00;99.90;;;;;;4971241;28;20270;-74
2022/03/12 00:11:36;;;;;;;15.37;9.60;;;3.00;99.90;;;;;;4971145;28;21221;-74
2022/03/12 00:14:04;;;;;;;17.73;10.47;;;3.00;99.90;;;;;;4970695;28;20255;-73
2022/03/12 00:16:30;;;;;;;15.20;10.40;;;2.90;99.90;;;;;;4971228;28;20556;-74
2022/03/12 00:18:58;;;;;;;15.03;8.93;;;2.90;99.90;;;;;;4971008;28;20420;-73
2022/03/12 00:21:29;;;;;;;14.07;8.70;;;2.90;99.90;;;;;;4971025;28;20683;-73
2022/03/12 00:24:00;;;;;;;16.47;10.20;;;3.00;99.90;;;;;;4971086;28;20469;-74
2022/03/12 00:26:27;;;;;;;23.23;10.17;;;2.90;99.90;;;;;;4970799;28;20395;-74
2022/03/12 00:28:54;;;;;;;16.27;10.27;;;2.90;99.90;;;;;;4969955;28;20476;-74
2022/03/12 00:31:20;;;;;;;16.37;9.77;;;2.90;99.90;;;;;;4970334;28;20965;-72
2022/03/12 00:33:45;;;;;;;15.03;9.90;;;2.90;99.90;;;;;;4970559;28;20415;-74
2022/03/12 00:36:12;;;;;;;15.83;9.83;;;2.90;99.90;;;;;;4971298;28;20419;-74
2022/03/12 00:38:37;;;;;;;21.43;10.80;;;2.90;99.90;;;;;;4970988;28;20257;-74
2022/03/12 00:41:05;;;;;;;16.83;9.50;;;2.90;99.90;;;;;;4969714;28;20524;-74
2022/03/12 00:43:31;;;;;;;20.50;9.87;;;2.90;99.90;;;;;;4969817;28;20205;-74
2022/03/12 00:45:56;;;;;;;17.93;10.27;;;2.90;99.90;;;;;;4971186;28;20392;-74
2022/03/12 00:48:22;;;;;;;15.00;9.53;;;2.90;99.90;;;;;;4970810;28;20176;-73
2022/03/12 00:50:48;;;;;;;23.77;10.90;;;2.90;99.90;;;;;;4971005;28;20240;-74
2022/03/12 00:53:13;;;;;;;19.50;10.67;;;2.90;99.90;;;;;;4970727;28;20183;-74
2022/03/12 00:55:39;;;;;;;16.37;10.40;;;2.90;99.90;;;;;;4970601;28;20409;-74
2022/03/12 00:58:04;;;;;;;16.63;10.17;;;2.90;99.90;;;;;;4970575;28;20173;-74
2022/03/12 01:00:31;;;;;;;18.10;10.00;;;3.00;99.90;;;;;;4970930;28;20176;-74
2022/03/12 01:02:57;;;;;;;14.87;9.57;;;3.00;99.90;;;;;;4970419;28;20210;-74
2022/03/12 01:05:34;;;;;;;22.07;9.90;;;2.90;99.90;;;;;;4972357;28;20899;-74
2022/03/12 01:08:00;;;;;;;21.23;10.73;;;2.90;99.90;;;;;;4972965;28;20168;-72
2022/03/12 01:10:26;;;;;;;23.70;11.20;;;3.00;99.90;;;;;;4974243;28;20814;-72
2022/03/12 01:12:51;;;;;;;18.93;10.30;;;3.00;99.90;;;;;;4973697;28;20204;-72
2022/03/12 01:15:17;;;;;;;16.37;10.33;;;3.00;99.90;;;;;;4974412;28;20657;-73
2022/03/12 01:17:42;;;;;;;18.90;10.63;;;3.10;99.90;;;;;;4971973;28;20721;-73
2022/03/12 01:20:08;;;;;;;19.10;9.73;;;3.10;99.90;;;;;;4974324;28;20245;-74
2022/03/12 01:22:38;;;;;;;19.33;10.33;;;3.10;99.90;;;;;;4974146;28;20208;-74
2022/03/12 01:25:05;;;;;;;16.17;10.20;;;3.10;99.90;;;;;;4973277;28;20482;-73
2022/03/12 01:27:31;;;;;;;20.43;10.13;;;3.10;99.90;;;;;;4974267;28;20392;-74
2022/03/12 01:29:56;;;;;;;14.23;8.87;;;3.20;99.90;;;;;;4974320;28;20491;-73
2022/03/12 01:32:22;;;;;;;13.20;10.47;;;3.20;99.90;;;;;;4973964;28;20219;-74
2022/03/12 01:34:47;;;;;;;17.50;11.13;;;3.20;99.90;;;;;;4972896;28;20553;-74
2022/03/12 01:37:19;;;;;;;17.40;10.40;;;3.30;99.90;;;;;;4973973;28;20706;-74
2022/03/12 01:39:48;;;;;;;17.60;10.50;;;3.30;99.90;;;;;;4973608;28;20237;-74
2022/03/12 01:42:14;;;;;;;25.80;13.33;;;3.30;99.90;;;;;;4973389;28;20445;-74
2022/03/12 01:44:41;;;;;;;19.93;11.07;;;3.30;99.90;;;;;;4972963;28;20527;-72
2022/03/12 01:47:08;;;;;;;20.87;10.50;;;3.40;99.90;;;;;;4973816;28;20424;-74
2022/03/12 01:49:34;;;;;;;18.73;10.80;;;3.40;99.90;;;;;;4973515;28;20482;-74
2022/03/12 01:51:59;;;;;;;20.33;9.80;;;3.50;99.90;;;;;;4973553;28;20564;-72
2022/03/12 01:54:27;;;;;;;21.30;12.03;;;3.50;99.90;;;;;;4972519;28;20737;-74
2022/03/12 01:56:55;;;;;;;16.30;11.67;;;3.60;99.90;;;;;;4973534;28;20180;-75
2022/03/12 01:59:21;;;;;;;19.30;10.83;;;3.60;99.90;;;;;;4973676;28;20416;-73
2022/03/12 03:32:24;;;;;;;16.17;10.47;;;3.90;99.90;;;;;;5296993;22;20509;-72
2022/03/12 03:34:49;;;;;;;16.90;10.30;;;4.00;99.90;;;;;;5009599;28;20413;-73
2022/03/12 03:37:15;;;;;;;16.00;11.33;;;4.00;99.90;;;;;;5011233;28;20177;-74
2022/03/12 03:39:41;;;;;;;14.10;10.70;;;3.90;99.90;;;;;;5009793;28;20203;-73
2022/03/12 03:42:07;;;;;;;16.07;9.93;;;4.00;99.90;;;;;;4997909;28;20958;-73
2022/03/12 03:44:32;;;;;;;18.37;10.27;;;4.00;99.90;;;;;;4990995;28;20275;-73
2022/03/12 03:46:58;;;;;;;25.23;12.00;;;4.00;99.90;;;;;;5010642;28;20185;-73
2022/03/12 03:49:24;;;;;;;16.57;10.03;;;4.00;99.90;;;;;;5011733;28;20862;-73
2022/03/12 03:51:51;;;;;;;23.87;10.17;;;4.00;99.90;;;;;;5010635;28;20595;-73
2022/03/12 03:54:17;;;;;;;22.50;11.80;;;4.00;99.90;;;;;;5010041;28;20436;-73
2022/03/12 03:56:43;;;;;;;17.00;10.53;;;4.00;99.90;;;;;;5010475;28;20511;-72
2022/03/12 03:59:09;;;;;;;19.50;11.60;;;4.00;99.90;;;;;;5010570;28;20853;-72
2022/03/12 04:01:41;;;;;;;18.10;10.00;;;3.90;99.90;;;;;;5009794;28;20441;-73
2022/03/12 04:04:08;;;;;;;21.93;12.10;;;3.90;99.90;;;;;;5009644;28;20805;-73
2022/03/12 04:06:37;;;;;;;16.67;10.77;;;3.80;99.90;;;;;;5010664;28;20438;-73
2022/03/12 04:09:03;;;;;;;12.80;9.00;;;3.80;99.90;;;;;;5010297;28;20822;-73
2022/03/12 04:11:28;;;;;;;16.03;10.00;;;3.80;99.90;;;;;;5010222;28;20442;-73
2022/03/12 04:13:56;;;;;;;15.30;10.00;;;3.70;99.90;;;;;;5009787;28;20180;-73
2022/03/12 04:16:22;;;;;;;18.03;10.50;;;3.70;99.90;;;;;;5010417;28;20180;-73
2022/03/12 04:18:48;;;;;;;17.20;10.80;;;3.70;99.90;;;;;;5010339;28;20958;-73
2022/03/12 04:21:16;;;;;;;13.67;9.80;;;3.70;99.90;;;;;;5008873;28;20200;-72
2022/03/12 04:23:42;;;;;;;15.30;9.63;;;3.60;99.90;;;;;;5009890;28;20829;-72
2022/03/12 04:26:09;;;;;;;19.40;10.60;;;3.60;99.90;;;;;;5010788;28;20415;-73
2022/03/12 04:28:35;;;;;;;17.73;10.33;;;3.60;99.90;;;;;;5009989;28;20967;-73
2022/03/12 04:31:02;;;;;;;19.50;10.27;;;3.60;99.90;;;;;;5007831;28;20455;-72
2022/03/12 04:33:29;;;;;;;18.73;9.90;;;3.50;99.90;;;;;;5009702;28;20498;-73
2022/03/12 04:35:56;;;;;;;19.93;10.60;;;3.60;99.90;;;;;;5010223;28;20431;-73
2022/03/12 04:38:21;;;;;;;14.83;10.00;;;3.60;99.90;;;;;;5010186;28;20502;-72
2022/03/12 04:40:47;;;;;;;17.20;11.07;;;3.60;99.90;;;;;;5012560;28;20422;-73
2022/03/12 04:43:13;;;;;;;18.63;10.27;;;3.50;99.90;;;;;;5013048;28;20191;-73
2022/03/12 04:45:42;;;;;;;15.93;9.90;;;3.60;99.90;;;;;;5013985;28;20230;-73
2022/03/12 04:48:11;;;;;;;17.40;11.10;;;3.50;99.90;;;;;;5013894;28;20423;-72
2022/03/12 04:50:37;;;;;;;19.50;10.63;;;3.50;99.90;;;;;;5013467;28;20427;-72
2022/03/12 04:53:02;;;;;;;17.10;11.53;;;3.50;99.90;;;;;;5012697;28;20390;-73
2022/03/12 04:55:29;;;;;;;20.80;11.57;;;3.50;99.90;;;;;;5013869;28;20547;-73
2022/03/12 04:57:55;;;;;;;20.53;10.60;;;3.40;99.90;;;;;;5012594;28;20653;-73
2022/03/12 05:00:25;;;;;;;18.87;10.30;;;3.40;99.90;;;;;;5013346;28;20524;-72
2022/03/12 05:03:04;;;;;;;21.23;11.97;;;3.40;99.90;;;;;;5012689;28;20466;-72
2022/03/12 05:05:30;;;;;;;17.57;12.43;;;3.40;99.90;;;;;;5012556;28;20415;-73
2022/03/12 05:07:58;;;;;;;29.70;12.10;;;3.50;99.90;;;;;;5013453;28;20488;-73
2022/03/12 05:10:27;;;;;;;18.07;11.83;;;3.60;99.90;;;;;;5013288;28;20408;-73
2022/03/12 05:12:58;;;;;;;16.50;11.13;;;3.60;99.90;;;;;;5012129;28;20455;-73
2022/03/12 05:15:24;;;;;;;19.07;11.50;;;3.70;99.90;;;;;;5013229;28;20440;-73
2022/03/12 05:17:51;;;;;;;21.27;11.83;;;3.70;99.90;;;;;;5013228;28;20821;-73
2022/03/12 05:20:22;;;;;;;20.70;10.73;;;3.70;99.90;;;;;;5013122;28;20583;-73
2022/03/12 05:22:49;;;;;;;15.80;10.30;;;3.70;99.90;;;;;;5011341;28;20438;-73
2022/03/12 05:25:18;;;;;;;19.50;10.60;;;3.70;99.90;;;;;;5013058;28;20429;-73
2022/03/12 05:27:53;;;;;;;18.30;11.40;;;3.70;99.90;;;;;;5011255;28;20427;-72
2022/03/12 05:30:20;;;;;;;19.70;10.60;;;3.70;99.90;;;;;;5010644;28;20422;-73
2022/03/12 05:32:46;;;;;;;19.57;10.87;;;3.70;99.90;;;;;;5011301;28;20443;-72
2022/03/12 05:35:13;;;;;;;14.73;10.20;;;3.70;99.90;;;;;;5012887;28;20414;-72
2022/03/12 05:37:40;;;;;;;18.17;11.73;;;3.70;99.90;;;;;;5012388;28;20448;-73
2022/03/12 05:40:09;;;;;;;15.20;10.60;;;3.70;99.90;;;;;;5012948;28;20424;-73
2022/03/12 05:42:34;;;;;;;18.47;11.50;;;3.70;99.90;;;;;;5012679;28;20442;-73
2022/03/12 05:45:08;;;;;;;14.00;9.90;;;3.70;99.90;;;;;;5012300;28;20454;-72
2022/03/12 05:47:36;;;;;;;17.70;10.60;;;3.70;99.90;;;;;;5012452;28;20218;-72
2022/03/12 05:50:03;;;;;;;18.97;11.40;;;3.70;99.90;;;;;;5012409;28;20447;-73
2022/03/12 05:52:28;;;;;;;19.00;11.10;;;3.70;99.90;;;;;;5010124;28;20454;-72
2022/03/12 05:54:54;;;;;;;24.07;10.50;;;3.70;99.90;;;;;;5011950;28;20415;-72
2022/03/12 05:57:19;;;;;;;16.53;10.70;;;3.80;99.90;;;;;;5012559;28;20271;-72
2022/03/12 05:59:45;;;;;;;18.67;11.03;;;3.90;99.90;;;;;;5011709;28;20670;-75
2022/03/12 06:02:11;;;;;;;17.23;11.50;;;4.00;99.90;;;;;;5011259;28;20223;-75
2022/03/12 06:04:36;;;;;;;23.67;11.17;;;4.10;99.90;;;;;;5011745;28;20495;-75
2022/03/12 06:07:02;;;;;;;16.73;9.77;;;4.10;99.90;;;;;;5012515;28;20180;-75
2022/03/12 06:09:28;;;;;;;18.47;10.43;;;4.20;99.90;;;;;;5013607;28;20178;-74
2022/03/12 06:11:54;;;;;;;20.47;11.87;;;4.20;99.90;;;;;;5026367;28;20435;-76
2022/03/12 06:14:21;;;;;;;20.73;11.47;;;4.20;99.90;;;;;;5011558;28;20177;-76
2022/03/12 06:16:50;;;;;;;16.23;9.77;;;4.30;99.90;;;;;;5012252;28;20597;-76
2022/03/12 06:19:19;;;;;;;18.97;11.20;;;4.30;99.90;;;;;;5012107;28;20421;-76
2022/03/12 06:21:46;;;;;;;23.63;10.43;;;4.30;99.90;;;;;;5010244;28;20468;-75
2022/03/12 06:24:12;;;;;;;18.07;11.17;;;4.50;99.90;;;;;;5011385;28;20499;-76
2022/03/12 06:26:39;;;;;;;19.23;12.23;;;4.60;99.90;;;;;;5012117;28;21216;-76
2022/03/12 06:29:11;;;;;;;15.73;11.00;;;4.80;99.90;;;;;;5012064;28;20773;-76
2022/03/12 06:31:37;;;;;;;20.30;11.43;;;5.00;99.90;;;;;;5011555;28;20478;-77
2022/03/12 06:34:02;;;;;;;23.17;10.97;;;5.10;99.90;;;;;;5010120;28;20515;-76
2022/03/12 06:36:28;;;;;;;16.10;11.27;;;5.30;99.90;;;;;;5011073;28;20186;-74
2022/03/12 06:38:54;;;;;;;16.80;10.27;;;5.70;99.90;;;;;;5011935;28;20182;-76
2022/03/12 06:41:20;;;;;;;14.07;10.40;;;6.20;99.90;;;;;;5011657;28;20243;-76
2022/03/12 06:43:47;;;;;;;18.33;11.30;;;6.70;99.90;;;;;;5010878;28;20681;-76
2022/03/12 06:46:16;;;;;;;20.93;12.10;;;7.10;99.90;;;;;;5011481;28;20467;-76
2022/03/12 06:48:42;;;;;;;16.87;10.57;;;7.40;99.90;;;;;;5010876;28;20797;-77
2022/03/12 06:51:10;;;;;;;19.43;11.57;;;7.40;99.90;;;;;;5011629;28;20436;-76
2022/03/12 06:53:36;;;;;;;15.33;10.07;;;7.20;99.90;;;;;;5010669;28;20440;-75
2022/03/12 06:56:02;;;;;;;21.40;12.47;;;7.00;99.90;;;;;;5011719;28;20794;-76
2022/03/12 06:58:29;;;;;;;17.90;11.33;;;7.00;99.90;;;;;;5011107;28;20451;-75
2022/03/12 07:00:55;;;;;;;16.77;10.87;;;7.40;99.90;;;;;;5010783;28;20438;-76
2022/03/12 07:03:21;;;;;;;15.13;10.50;;;8.30;99.90;;;;;;5010252;28;20428;-75
2022/03/12 07:05:47;;;;;;;14.73;10.50;;;9.20;99.90;;;;;;5011590;28;20424;-76
2022/03/12 07:08:13;;;;;;;12.90;8.83;;;10.10;98.20;;;;;;5011850;28;20253;-77
2022/03/12 07:10:38;;;;;;;12.87;9.60;;;10.40;95.20;;;;;;5011506;28;20417;-76
2022/03/12 07:13:04;;;;;;;16.47;9.70;;;10.60;94.20;;;;;;5010721;28;20585;-77
2022/03/12 07:15:30;;;;;;;16.10;10.40;;;10.60;93.20;;;;;;5010410;28;20190;-75
2022/03/12 07:17:56;;;;;;;11.90;9.63;;;10.70;93.40;;;;;;5010922;28;20183;-76
2022/03/12 07:20:21;;;;;;;15.23;9.73;;;11.00;92.40;;;;;;5011037;28;20193;-76
2022/03/12 07:22:47;;;;;;;17.10;10.40;;;11.60;91.00;;;;;;5010524;28;20579;-75
2022/03/12 07:25:14;;;;;;;16.00;10.27;;;11.90;90.20;;;;;;5011023;28;20210;-76
2022/03/12 07:27:41;;;;;;;15.77;10.17;;;12.10;88.20;;;;;;5010134;28;20178;-76
2022/03/12 07:30:08;;;;;;;15.27;10.37;;;12.10;86.60;;;;;;5010747;28;20414;-75
2022/03/12 07:32:35;;;;;;;18.00;10.40;;;12.00;85.00;;;;;;5010411;28;20476;-75
2022/03/12 07:35:02;;;;;;;15.13;10.23;;;12.00;86.70;;;;;;5010474;28;20501;-76
2022/03/12 07:37:27;;;;;;;14.23;10.27;;;12.10;84.80;;;;;;5010560;28;20421;-76
2022/03/12 07:39:53;;;;;;;13.77;10.73;;;11.40;83.60;;;;;;5010624;28;20516;-76
2022/03/12 07:42:19;;;;;;;14.23;10.53;;;11.10;83.80;;;;;;5009866;28;20209;-76
2022/03/12 07:44:45;;;;;;;20.53;10.83;;;11.00;86.00;;;;;;5009882;28;20756;-76
2022/03/12 07:47:10;;;;;;;15.67;10.40;;;11.10;85.60;;;;;;5010531;28;20417;-76
2022/03/12 07:49:38;;;;;;;19.13;10.17;;;10.80;84.60;;;;;;5009688;28;20221;-76
2022/03/12 07:52:06;;;;;;;14.10;9.47;;;10.70;85.80;;;;;;5010459;28;20240;-76
2022/03/12 07:54:31;;;;;;;14.47;9.60;;;10.70;85.10;;;;;;5009689;28;20416;-76
2022/03/12 07:56:57;;;;;;;13.17;10.10;;;10.70;85.50;;;;;;5010358;28;21217;-76
2022/03/12 07:59:22;;;;;;;14.93;9.43;;;10.70;85.80;;;;;;5009996;28;20276;-76
2022/03/12 08:01:48;;;;;;;15.60;10.90;;;10.80;85.30;;;;;;5009439;28;20213;-73
2022/03/12 08:04:14;;;;;;;17.30;10.27;;;10.50;84.70;;;;;;5009458;28;20227;-76
2022/03/12 08:06:39;;;;;;;17.70;11.20;;;10.60;84.90;;;;;;5009913;28;20186;-75
2022/03/12 08:09:05;;;;;;;15.20;10.23;;;10.60;84.30;;;;;;5009788;28;20588;-75
2022/03/12 08:11:32;;;;;;;13.97;9.87;;;11.00;84.70;;;;;;5008917;28;20204;-75
2022/03/12 08:14:12;;;;;;;16.13;10.50;;;10.70;83.40;;;;;;5009454;28;20223;-76
2022/03/12 08:16:37;;;;;;;21.53;11.30;;;10.60;83.40;;;;;;5014100;28;20420;-76
2022/03/12 08:19:06;;;;;;;15.30;10.47;;;10.60;83.80;;;;;;5013844;28;20768;-75
2022/03/12 08:21:32;;;;;;;18.03;9.63;;;11.00;85.20;;;;;;5013931;28;20197;-76
2022/03/12 08:23:58;;;;;;;17.73;10.50;;;11.00;82.70;;;;;;5013805;28;20464;-76
2022/03/12 08:26:24;;;;;;;22.03;10.40;;;11.30;84.20;;;;;;5014081;28;20409;-76
2022/03/12 08:28:50;;;;;;;19.43;11.50;;;11.60;83.00;;;;;;5014105;28;20462;-75
2022/03/12 08:31:16;;;;;;;15.50;10.20;;;11.70;83.10;;;;;;5013685;28;20444;-76
2022/03/12 08:33:41;;;;;;;12.70;10.40;;;11.80;82.70;;;;;;5013612;28;20449;-76
2022/03/12 08:36:08;;;;;;;19.07;11.00;;;11.90;82.90;;;;;;5014346;28;20645;-76
2022/03/12 08:38:35;;;;;;;14.93;10.77;;;12.10;82.50;;;;;;5013641;28;20261;-76
2022/03/12 08:41:02;;;;;;;15.30;10.90;;;12.20;81.10;;;;;;5013990;28;20441;-76
2022/03/12 08:43:28;;;;;;;17.87;11.00;;;11.90;80.20;;;;;;5012478;28;20484;-76
2022/03/12 08:45:53;;;;;;;15.17;10.90;;;11.80;82.10;;;;;;5014038;28;20418;-76
2022/03/12 08:48:19;;;;;;;15.17;10.10;;;11.90;83.60;;;;;;5012539;28;20224;-76
2022/03/12 08:50:46;;;;;;;16.90;9.93;;;12.20;82.00;;;;;;5013474;28;20179;-76
2022/03/12 08:53:12;;;;;;;16.20;10.43;;;12.50;81.10;;;;;;5012443;28;20194;-75
2022/03/12 08:55:38;;;;;;;13.43;10.80;;;12.70;80.40;;;;;;5013572;28;20432;-75
2022/03/12 08:58:05;;;;;;;19.57;12.87;;;12.90;80.50;;;;;;5012309;28;20467;-76
2022/03/12 09:00:31;;;;;;;18.07;12.07;;;13.00;82.00;;;;;;5013494;28;20424;-75
2022/03/12 09:02:57;;;;;;;14.80;9.63;;;12.90;79.40;;;;;;5012947;28;20473;-76
2022/03/12 09:05:23;;;;;;;19.90;10.97;;;13.00;79.50;;;;;;5013023;28;20897;-76
2022/03/12 09:07:51;;;;;;;19.70;11.40;;;13.10;80.30;;;;;;5013347;28;20425;-74
2022/03/12 09:10:16;;;;;;;15.70;10.80;;;13.40;78.80;;;;;;5013344;28;20183;-76
2022/03/12 09:12:42;;;;;;;20.50;13.27;;;13.50;79.30;;;;;;5013087;28;20783;-76
2022/03/12 09:15:10;;;;;;;18.03;12.60;;;13.60;80.20;;;;;;5013111;28;20229;-75
2022/03/12 09:17:35;;;;;;;19.30;12.23;;;13.50;78.20;;;;;;5012543;28;20189;-76
2022/03/12 09:20:04;;;;;;;19.07;13.40;;;13.70;78.50;;;;;;5013347;28;20418;-75
2022/03/12 09:22:29;;;;;;;21.33;13.13;;;13.70;78.30;;;;;;5012876;28;20209;-76
2022/03/12 09:24:55;;;;;;;16.10;11.90;;;13.70;78.00;;;;;;5012559;28;20826;-76
2022/03/12 09:27:20;;;;;;;15.80;12.30;;;14.00;77.70;;;;;;5012843;28;20178;-76
2022/03/12 09:29:46;;;;;;;19.53;13.10;;;14.00;76.60;;;;;;5012915;28;20244;-76
2022/03/12 09:32:12;;;;;;;20.77;13.83;;;14.20;78.90;;;;;;5012326;28;20217;-76
2022/03/12 09:34:38;;;;;;;13.93;11.80;;;14.40;76.60;;;;;;5012259;28;20845;-76
2022/03/12 09:37:05;;;;;;;17.87;12.20;;;14.60;76.60;;;;;;5013018;28;20266;-76
2022/03/12 09:39:31;;;;;;;23.23;13.10;;;14.40;75.70;;;;;;5012304;28;20241;-75
2022/03/12 09:41:57;;;;;;;24.77;13.83;;;14.50;75.80;;;;;;5012792;28;20442;-76
2022/03/12 09:44:22;;;;;;;19.30;12.80;;;14.70;75.90;;;;;;5010136;28;20457;-76
2022/03/12 09:46:48;;;;;;;21.20;14.33;;;14.60;75.80;;;;;;5012706;28;20440;-74
2022/03/12 09:49:14;;;;;;;18.80;12.63;;;14.70;74.80;;;;;;5012630;28;20175;-76
2022/03/12 09:51:40;;;;;;;20.83;14.03;;;14.50;75.00;;;;;;5013373;28;20460;-76
2022/03/12 09:54:06;;;;;;;18.37;11.57;;;14.60;75.70;;;;;;5013187;28;20277;-76
2022/03/12 09:56:31;;;;;;;19.97;12.63;;;14.70;76.20;;;;;;5012687;28;20422;-76
2022/03/12 09:58:57;;;;;;;18.20;12.20;;;14.70;74.70;;;;;;5012955;28;20183;-76
2022/03/12 10:01:23;;;;;;;24.80;14.80;;;14.50;75.40;;;;;;5013178;28;20295;-76
2022/03/12 10:03:49;;;;;;;18.47;13.77;;;14.50;75.60;;;;;;5012684;28;20611;-75
2022/03/12 10:06:15;;;;;;;17.93;13.20;;;15.10;75.60;;;;;;5013015;28;20467;-76
2022/03/12 10:08:44;;;;;;;19.17;14.17;;;15.40;76.70;;;;;;5012184;28;20508;-76
2022/03/12 10:11:10;;;;;;;21.37;13.10;;;15.70;74.80;;;;;;5012740;28;20336;-76
2022/03/12 10:13:36;;;;;;;23.60;14.80;;;15.50;76.00;;;;;;5011788;28;20508;-76
2022/03/12 10:16:03;;;;;;;20.17;14.53;;;15.30;75.10;;;;;;5012540;28;20593;-76
2022/03/12 10:18:28;;;;;;;23.90;13.90;;;15.10;75.20;;;;;;5011904;28;20424;-75
2022/03/12 10:20:56;;;;;;;26.67;15.20;;;15.40;75.00;;;;;;5011621;28;20410;-76
2022/03/12 10:23:22;;;;;;;21.90;14.00;;;15.70;75.90;;;;;;5011293;28;20187;-76
2022/03/12 10:25:47;;;;;;;23.87;15.03;;;16.00;75.30;;;;;;5012332;28;20432;-76
2022/03/12 10:28:13;;;;;;;26.83;14.27;;;16.30;76.70;;;;;;5011796;28;20179;-76
2022/03/12 10:30:39;;;;;;;20.33;14.37;;;16.10;73.80;;;;;;5012016;28;20265;-76
2022/03/12 10:33:06;;;;;;;26.73;13.77;;;15.70;74.60;;;;;;5011229;28;20667;-76
2022/03/12 10:35:37;;;;;;;24.30;14.70;;;15.90;75.00;;;;;;5011612;28;20424;-76
2022/03/12 10:38:09;;;;;;;17.63;13.43;;;15.90;76.30;;;;;;5011066;28;20430;-76
2022/03/12 10:40:35;;;;;;;25.10;13.50;;;16.30;76.60;;;;;;5011727;28;20420;-76
2022/03/12 10:43:05;;;;;;;21.70;15.10;;;16.40;75.30;;;;;;5010993;28;20443;-75
2022/03/12 10:45:38;;;;;;;20.57;15.07;;;16.10;75.90;;;;;;5010887;28;20500;-75
2022/03/12 10:48:05;;;;;;;19.73;15.27;;;16.20;76.40;;;;;;5011417;28;20500;-76
2022/03/12 10:50:36;;;;;;;24.00;14.57;;;16.40;75.90;;;;;;5011171;28;20505;-75
2022/03/12 10:53:06;;;;;;;23.00;14.93;;;16.60;75.40;;;;;;5010711;28;20418;-76
2022/03/12 10:55:43;;;;;;;23.17;15.00;;;16.00;75.90;;;;;;5010889;28;20460;-76
2022/03/12 10:58:15;;;;;;;20.03;13.30;;;16.10;77.70;;;;;;5011215;28;20417;-75
2022/03/12 11:00:48;;;;;;;23.63;15.20;;;16.30;78.40;;;;;;5010818;28;20420;-76
2022/03/12 11:03:20;;;;;;;20.10;13.77;;;16.60;78.80;;;;;;5010745;28;20739;-76
2022/03/12 11:05:47;;;;;;;17.57;13.53;;;17.00;79.80;;;;;;5011556;28;20421;-76
2022/03/12 11:08:16;;;;;;;17.80;13.63;;;16.80;78.20;;;;;;5011082;28;20444;-76
2022/03/12 11:10:52;;;;;;;19.70;13.37;;;16.50;78.00;;;;;;5010898;28;20825;-76
2022/03/12 11:13:37;;;;;;;15.53;12.30;;;16.40;79.00;;;;;;5010853;28;20409;-76
2022/03/12 11:16:26;;;;;;;21.83;15.40;;;16.50;78.60;;;;;;5011335;28;20456;-76
2022/03/12 11:18:52;;;;;;;18.50;14.60;;;16.40;78.90;;;;;;5010755;28;20416;-76
2022/03/12 11:21:37;;;;;;;22.63;13.03;;;16.20;79.90;;;;;;5010454;28;20505;-76
2022/03/12 11:24:05;;;;;;;22.93;12.70;;;16.10;79.90;;;;;;5010391;28;20256;-75
2022/03/12 11:26:43;;;;;;;24.00;12.53;;;16.00;81.10;;;;;;5010807;28;20926;-75
2022/03/12 11:29:10;;;;;;;20.60;12.73;;;16.10;81.70;;;;;;5010683;28;20420;-74
2022/03/12 11:31:40;;;;;;;17.63;11.93;;;16.20;82.60;;;;;;5010666;28;20493;-75
2022/03/12 11:34:24;;;;;;;16.90;13.00;;;16.50;83.90;;;;;;5010433;28;20780;-76
2022/03/12 11:37:28;;;;;;;19.63;13.40;;;16.50;81.60;;;;;;5010394;28;20410;-76
2022/03/12 11:39:58;;;;;;;21.20;14.20;;;16.80;81.70;;;;;;4930664;29;20428;-75
2022/03/12 11:42:26;;;;;;;16.83;13.27;;;17.00;82.50;;;;;;4930859;29;20433;-76
2022/03/12 11:44:55;;;;;;;15.83;12.13;;;17.00;80.90;;;;;;4970520;28;20465;-76
2022/03/12 11:47:23;;;;;;;20.70;12.33;;;16.90;81.30;;;;;;5010517;28;20414;-76
2022/03/12 11:49:49;;;;;;;21.10;14.40;;;16.70;82.10;;;;;;5009170;28;20421;-74
2022/03/12 11:52:16;;;;;;;19.80;12.47;;;16.60;82.90;;;;;;5010316;28;20507;-76
2022/03/12 11:54:43;;;;;;;18.10;13.10;;;16.80;84.00;;;;;;5010228;28;20516;-76
2022/03/12 11:57:24;;;;;;;16.50;12.70;;;16.60;83.60;;;;;;5010448;28;20428;-75
2022/03/12 11:59:51;;;;;;;20.40;12.77;;;16.80;84.20;;;;;;5010387;28;20409;-76
2022/03/12 12:02:20;;;;;;;18.07;12.87;;;16.90;82.40;;;;;;5009764;28;20444;-76
2022/03/12 12:04:45;;;;;;;16.70;11.90;;;17.20;83.00;;;;;;5010127;28;20453;-76
2022/03/12 12:07:11;;;;;;;16.40;12.03;;;17.40;83.70;;;;;;5010356;28;20428;-76
2022/03/12 12:09:37;;;;;;;17.80;10.77;;;17.10;84.50;;;;;;5010014;28;20184;-76
2022/03/12 12:12:13;;;;;;;22.90;14.67;;;17.10;86.90;;;;;;5010420;28;20192;-76
2022/03/12 12:14:41;;;;;;;17.83;11.50;;;17.00;85.10;;;;;;5009201;28;20170;-76
2022/03/12 12:17:07;;;;;;;18.47;11.47;;;16.70;85.20;;;;;;5010416;28;20420;-76
2022/03/12 12:19:34;;;;;;;16.70;11.93;;;16.70;87.40;;;;;;5009641;28;20439;-76
2022/03/12 12:22:00;;;;;;;13.97;9.60;;;16.20;86.90;;;;;;5011902;28;20205;-76
2022/03/12 12:24:35;;;;;;;14.20;10.83;;;16.20;88.80;;;;;;5009464;28;20526;-76
2022/03/12 12:27:08;;;;;;;14.63;9.60;;;16.00;88.50;;;;;;5008730;28;20424;-76
2022/03/12 12:29:46;;;;;;;9.30;7.87;;;16.10;90.90;;;;;;5009902;28;20989;-76
2022/03/12 12:32:14;;;;;;;11.03;9.33;;;15.90;90.60;;;;;;5009917;28;20445;-76
2022/03/12 12:35:18;;;;;;;9.40;6.70;;;15.80;91.10;;;;;;5009232;28;20422;-76
2022/03/12 12:37:58;;;;;;;12.10;8.97;;;15.70;92.00;;;;;;5010234;28;20409;-76
2022/03/12 12:40:49;;;;;;;15.47;8.37;;;15.40;91.60;;;;;;5009442;28;20940;-76
2022/03/12 12:43:21;;;;;;;14.90;9.13;;;15.10;92.10;;;;;;4996916;28;20422;-75
2022/03/12 12:45:54;;;;;;;15.60;9.53;;;15.10;92.60;;;;;;4910874;28;20846;-77
2022/03/12 12:48:33;;;;;;;11.03;8.00;;;15.10;92.90;;;;;;4919895;28;20413;-77
2022/03/12 12:51:05;;;;;;;17.33;10.17;;;15.40;93.40;;;;;;4924222;28;20658;-78
2022/03/12 12:53:35;;;;;;;11.80;9.10;;;15.30;92.80;;;;;;4921197;28;20831;-79
2022/03/12 12:56:22;;;;;;;12.77;8.90;;;15.40;93.40;;;;;;4919251;28;20591;-75
2022/03/12 12:59:03;;;;;;;9.03;7.20;;;15.60;93.50;;;;;;4918881;28;20593;-77
2022/03/12 13:01:44;;;;;;;9.90;7.43;;;15.60;93.70;;;;;;4919966;28;20755;-77
2022/03/12 13:04:12;;;;;;;10.87;6.77;;;15.40;94.20;;;;;;4924455;28;20736;-77
2022/03/12 13:06:41;;;;;;;9.20;7.20;;;15.30;94.10;;;;;;4923094;28;21280;-77
2022/03/12 13:09:09;;;;;;;10.63;7.00;;;15.40;94.60;;;;;;4927407;28;20748;-77
2022/03/12 13:11:49;;;;;;;7.20;5.90;;;15.40;94.60;;;;;;4936890;28;20468;-78
2022/03/12 13:14:18;;;;;;;8.53;6.73;;;15.40;94.70;;;;;;4923773;28;20995;-76
2022/03/12 13:17:00;;;;;;;8.87;7.37;;;15.30;94.20;;;;;;4931539;28;21089;-77
2022/03/12 13:19:29;;;;;;;9.53;8.00;;;15.30;95.00;;;;;;4924019;28;21012;-77
2022/03/12 13:22:21;;;;;;;8.63;7.70;;;15.30;94.30;;;;;;4927442;28;20477;-78
2022/03/12 13:25:00;;;;;;;8.67;7.77;;;15.20;94.20;;;;;;4934617;28;20767;-78
2022/03/12 13:27:30;;;;;;;11.70;8.37;;;15.20;94.50;;;;;;4927084;28;20703;-78
2022/03/12 13:30:18;;;;;;;13.63;7.70;;;15.10;94.60;;;;;;4920776;28;20437;-78
2022/03/12 13:32:46;;;;;;;9.80;7.30;;;15.10;95.20;;;;;;4921729;28;21051;-76
2022/03/12 13:35:17;;;;;;;11.43;8.30;;;15.10;94.70;;;;;;4923060;28;20860;-76
2022/03/12 13:37:43;;;;;;;12.10;8.20;;;15.10;94.40;;;;;;4923664;28;20572;-77
2022/03/12 13:40:12;;;;;;;14.00;8.83;;;14.90;94.50;;;;;;4926847;28;20593;-79
2022/03/12 13:42:40;;;;;;;10.97;7.40;;;14.90;94.80;;;;;;4944253;28;20504;-76
2022/03/12 13:45:06;;;;;;;11.10;7.10;;;15.00;95.30;;;;;;4949254;28;20482;-76
2022/03/12 13:47:34;;;;;;;15.37;9.23;;;15.00;94.70;;;;;;4950809;28;20421;-77
2022/03/12 13:50:00;;;;;;;17.83;8.33;;;15.20;95.40;;;;;;4949286;28;20633;-76
2022/03/12 13:52:26;;;;;;;11.30;8.77;;;15.20;94.70;;;;;;4947939;28;20438;-76
2022/03/12 13:55:03;;;;;;;11.77;9.10;;;15.00;94.40;;;;;;4949285;28;20845;-76
2022/03/12 13:57:31;;;;;;;9.50;7.37;;;15.10;94.90;;;;;;4949089;28;20182;-75
2022/03/12 14:00:01;;;;;;;11.33;7.50;;;15.10;95.70;;;;;;4946961;28;20417;-76
2022/03/12 14:02:26;;;;;;;11.90;8.67;;;15.20;94.90;;;;;;4946854;28;20588;-76
2022/03/12 14:04:55;;;;;;;9.30;7.63;;;15.20;95.20;;;;;;4949105;28;20917;-75
2022/03/12 14:07:20;;;;;;;10.60;7.90;;;15.10;94.80;;;;;;4945360;28;20245;-76
2022/03/12 14:09:46;;;;;;;10.50;9.27;;;15.10;95.50;;;;;;4946467;28;21003;-76